Apache, Nevada
Current Conditions -  °F | °C
As of 3:56 AM on Monday 22 Dec 2014 (Local Time) from KWMC Reporting Station
Broken Clouds Broken Clouds  
Wind Chill: 50°   Ceiling: 6000
Heat Index: 50°   Visibility: 10mi
Dew Point: 38°   Wind: 14mph
Humidity: 63%   Direction: 230°SW
Pressure: 30.15"   Gusts: NA
Location:  40.601°N, 117.984°W
Report Text: KWMC 221156Z AUTO 23012KT 10SM FEW038 SCT045 BKN060 10/03 A3015 RMK AO2 SLP193 70001 T01000033 10106 20094 58008
Loading
Personal Weather Stations






























Interactive Weather Map New forecast layout! Learn more

10-Day Weather Forecast

Advertisements
Track Severe Weather on mobile